createdAt,value
2019-05-12T00:00:07.826Z,9.8
2019-05-12T00:05:05.873Z,9.8
2019-05-12T00:10:05.867Z,9.8
2019-05-12T00:15:08.156Z,9.8
2019-05-12T00:20:08.308Z,9.8
2019-05-12T00:25:05.900Z,9.8
2019-05-12T00:30:09.632Z,9.8
2019-05-12T00:35:07.778Z,9.8
2019-05-12T00:40:05.914Z,9.7
2019-05-12T00:45:07.878Z,9.7
2019-05-12T00:50:07.993Z,9.7
2019-05-12T00:55:07.881Z,9.7
2019-05-12T01:00:05.915Z,9.8
2019-05-12T01:05:08.297Z,9.8
2019-05-12T01:10:05.918Z,9.8
2019-05-12T01:15:07.461Z,9.8
2019-05-12T01:20:05.931Z,9.8
2019-05-12T01:25:08.322Z,9.8
2019-05-12T01:30:08.425Z,9.8
2019-05-12T01:35:07.947Z,9.8
2019-05-12T01:40:08.476Z,9.8
2019-05-12T01:45:05.946Z,9.8
2019-05-12T01:50:08.727Z,9.8
2019-05-12T01:55:07.967Z,9.8
2019-05-12T02:00:07.917Z,9.8
2019-05-12T02:05:08.210Z,9.8
2019-05-12T02:10:05.962Z,9.8
2019-05-12T02:15:07.971Z,9.8
2019-05-12T02:20:07.701Z,9.8
2019-05-12T02:25:07.851Z,9.8
2019-05-12T02:30:09.641Z,9.8
2019-05-12T02:35:06.083Z,9.8
2019-05-12T02:40:05.993Z,9.8
2019-05-12T02:45:05.971Z,9.8
2019-05-12T02:50:05.974Z,9.8
2019-05-12T02:55:06.569Z,9.8
2019-05-12T03:00:05.983Z,9.8
2019-05-12T03:05:05.976Z,9.8
2019-05-12T03:10:05.988Z,9.8
2019-05-12T03:15:05.996Z,9.8
2019-05-12T03:20:06.009Z,9.8
2019-05-12T03:25:14.868Z,9.8
2019-05-12T03:30:11.192Z,9.8
2019-05-12T03:35:08.597Z,9.8
2019-05-12T03:40:05.994Z,9.8
2019-05-12T03:45:06.007Z,9.7
2019-05-12T03:50:06.016Z,9.7
2019-05-12T03:55:06.091Z,9.6
2019-05-12T04:00:06.008Z,9.6
2019-05-12T04:05:06.003Z,9.6
2019-05-12T04:10:06.007Z,9.5
2019-05-12T04:15:06.005Z,9.5
2019-05-12T04:20:06.021Z,9.5
2019-05-12T04:25:06.465Z,9.4
2019-05-12T04:30:06.009Z,9.4
2019-05-12T04:35:06.032Z,9.4
2019-05-12T04:40:06.032Z,9.4
2019-05-12T04:45:06.026Z,9.4
2019-05-12T04:50:06.041Z,9.4
2019-05-12T04:55:06.030Z,9.4
2019-05-12T05:00:06.038Z,9.4
2019-05-12T05:05:06.003Z,9.4
2019-05-12T05:10:06.047Z,9.4
2019-05-12T05:15:06.078Z,9.4
2019-05-12T05:20:06.045Z,9.4
2019-05-12T05:25:06.068Z,9.4
2019-05-12T05:30:06.047Z,9.4
2019-05-12T05:35:07.716Z,9.4
2019-05-12T05:40:06.066Z,9.4
2019-05-12T05:45:09.780Z,9.5
2019-05-12T05:50:06.065Z,9.5
2019-05-12T05:55:14.466Z,9.5
2019-05-12T06:00:07.008Z,9.5
2019-05-12T06:05:06.072Z,9.5
2019-05-12T06:10:06.080Z,9.5
2019-05-12T06:15:08.761Z,9.6
2019-05-12T06:20:06.087Z,9.6
2019-05-12T06:25:06.032Z,9.6
2019-05-12T06:30:06.483Z,9.6
2019-05-12T06:35:06.106Z,9.7
2019-05-12T06:40:06.088Z,9.7
2019-05-12T06:45:06.100Z,9.7
2019-05-12T06:50:06.105Z,9.7
2019-05-12T06:55:06.094Z,9.8
2019-05-12T07:00:06.100Z,9.8
2019-05-12T07:05:06.135Z,9.9
2019-05-12T07:10:11.484Z,10
2019-05-12T07:15:06.131Z,9.9
2019-05-12T07:20:06.228Z,9.9
2019-05-12T07:25:08.117Z,9.9
2019-05-12T07:30:06.122Z,9.9
2019-05-12T07:35:06.123Z,10
2019-05-12T07:40:06.118Z,10
2019-05-12T07:45:06.130Z,10
2019-05-12T07:50:09.713Z,10.1
2019-05-12T07:55:06.091Z,10.1
2019-05-12T08:00:06.132Z,10.1
2019-05-12T08:05:06.125Z,10.1
2019-05-12T08:10:07.050Z,10.1
2019-05-12T08:15:09.554Z,10.1
2019-05-12T08:20:06.167Z,10.1
2019-05-12T08:25:06.150Z,10.1
2019-05-12T08:30:06.357Z,10.1
2019-05-12T08:35:06.156Z,10
2019-05-12T08:40:07.589Z,10
2019-05-12T08:45:08.189Z,10
2019-05-12T08:50:06.152Z,10
2019-05-12T08:55:06.154Z,10
2019-05-12T09:00:08.525Z,10
2019-05-12T09:05:06.147Z,10
2019-05-12T09:10:06.205Z,10
2019-05-12T09:15:08.302Z,10
2019-05-12T09:20:08.245Z,10
2019-05-12T09:25:08.322Z,9.9
2019-05-12T09:30:09.587Z,9.9
2019-05-12T09:35:06.184Z,9.8
2019-05-12T09:40:06.198Z,9.8
2019-05-12T09:45:10.235Z,9.7
2019-05-12T09:50:09.528Z,9.7
2019-05-12T09:55:06.165Z,9.7
2019-05-12T10:00:06.201Z,9.7
2019-05-12T10:05:06.184Z,9.7
2019-05-12T10:10:06.185Z,9.5
2019-05-12T10:15:06.219Z,9.4
2019-05-12T10:20:06.201Z,9.4
2019-05-12T10:25:06.230Z,9.5
2019-05-12T10:30:12.071Z,9.4
2019-05-12T10:35:06.214Z,9.5
2019-05-12T10:40:06.195Z,9.5
2019-05-12T10:45:10.665Z,9.5
2019-05-12T10:50:06.236Z,9.4
2019-05-12T10:55:06.207Z,9.5
2019-05-12T11:00:06.399Z,9.5
2019-05-12T11:05:12.190Z,9.6
2019-05-12T11:10:15.095Z,9.6
2019-05-12T11:15:06.578Z,9.6
2019-05-12T11:20:06.235Z,9.6
2019-05-12T11:25:06.233Z,9.7
2019-05-12T11:30:06.239Z,9.8
2019-05-12T11:35:06.251Z,9.8
2019-05-12T11:40:06.245Z,9.5
2019-05-12T11:45:06.255Z,9.6
2019-05-12T11:50:09.629Z,9.7
2019-05-12T11:55:06.252Z,9.9
2019-05-12T12:00:06.264Z,9.9
2019-05-12T12:05:06.272Z,9.8
2019-05-12T12:10:06.251Z,9.7
2019-05-12T12:15:06.253Z,9.5
2019-05-12T12:20:06.259Z,9.5
2019-05-12T12:25:10.596Z,9.5
2019-05-12T12:30:15.644Z,9.6
2019-05-12T12:35:10.369Z,9.5
2019-05-12T12:40:06.279Z,9.5
2019-05-12T12:45:06.316Z,9.4
2019-05-12T12:50:06.282Z,9.5
2019-05-12T12:55:08.401Z,9.5
2019-05-12T13:00:06.287Z,9.5
2019-05-12T13:05:06.278Z,9.4
2019-05-12T13:10:09.380Z,9.5
2019-05-12T13:15:06.424Z,9.5
2019-05-12T13:20:06.297Z,9.5
2019-05-12T13:25:08.531Z,9.5
2019-05-12T13:30:06.323Z,9.4
2019-05-12T13:35:09.570Z,9.4
2019-05-12T13:40:06.298Z,9.3
2019-05-12T13:45:06.430Z,9.2
2019-05-12T13:50:06.355Z,9.2
2019-05-12T13:55:07.698Z,9.2
2019-05-12T14:00:10.509Z,9.2
2019-05-12T14:05:11.216Z,9.2
2019-05-12T14:10:06.328Z,9.3
2019-05-12T14:15:07.105Z,9.3
2019-05-12T14:20:09.123Z,9.2
2019-05-12T14:25:07.138Z,9.1
2019-05-12T14:30:10.183Z,9.2
2019-05-12T14:35:07.106Z,9
2019-05-12T14:40:07.126Z,9
2019-05-12T14:45:07.406Z,8.9
2019-05-12T14:50:07.107Z,9
2019-05-12T14:55:10.098Z,8.9
2019-05-12T15:00:11.110Z,8.9
2019-05-12T15:05:10.948Z,8.8
2019-05-12T15:10:10.700Z,9
2019-05-12T15:15:15.398Z,9
2019-05-12T15:20:13.580Z,9
2019-05-12T15:25:10.524Z,9
2019-05-12T15:30:19.983Z,9.1
2019-05-12T15:35:10.548Z,9.1
2019-05-12T15:40:10.492Z,9.1
2019-05-12T15:45:12.327Z,9.1
2019-05-12T15:50:10.945Z,9
2019-05-12T15:55:10.556Z,9
2019-05-12T16:00:10.470Z,8.9
2019-05-12T16:05:10.523Z,8.9
2019-05-12T16:10:10.528Z,8.8
2019-05-12T16:15:11.292Z,8.8
2019-05-12T16:20:10.942Z,8.8
2019-05-12T16:25:10.522Z,8.8
2019-05-12T16:30:10.568Z,8.7
2019-05-12T16:35:10.534Z,8.7
2019-05-12T16:40:10.553Z,8.7
2019-05-12T16:45:11.170Z,8.6
2019-05-12T16:50:14.975Z,8.6
2019-05-12T16:55:11.898Z,8.5
2019-05-12T17:00:13.571Z,8.5
2019-05-12T17:05:15.450Z,8.5
2019-05-12T17:10:15.849Z,8.4
2019-05-12T17:15:11.321Z,8.4
2019-05-12T17:20:13.561Z,8.4
2019-05-12T17:25:11.320Z,8.3
2019-05-12T17:30:13.488Z,8.3
2019-05-12T17:35:11.468Z,8.2
2019-05-12T17:40:15.322Z,8.2
2019-05-12T17:45:15.673Z,8.2
2019-05-12T17:50:13.609Z,8.1
2019-05-12T17:55:11.519Z,8.1
2019-05-12T18:00:13.735Z,8.1
2019-05-12T18:05:12.886Z,8.1
2019-05-12T18:10:13.479Z,8
2019-05-12T18:15:14.956Z,8
2019-05-12T18:20:14.319Z,8
2019-05-12T18:25:21.785Z,8
2019-05-12T18:30:19.018Z,8
2019-05-12T18:35:17.316Z,8
2019-05-12T18:40:16.301Z,8
2019-05-12T18:45:18.021Z,7.9
2019-05-12T18:50:20.499Z,7.9
2019-05-12T18:55:15.544Z,7.9
2019-05-12T19:00:15.200Z,7.9
2019-05-12T19:05:21.401Z,7.9
2019-05-12T19:10:15.798Z,7.9
2019-05-12T19:15:21.624Z,7.8
2019-05-12T19:20:15.664Z,7.8
2019-05-12T19:25:17.348Z,7.8
2019-05-12T19:30:19.205Z,7.8
2019-05-12T19:35:20.005Z,7.8
2019-05-12T19:40:17.552Z,7.8
2019-05-12T19:45:21.243Z,7.8
2019-05-12T19:50:18.389Z,7.8
2019-05-12T19:55:15.380Z,7.8
2019-05-12T20:00:15.195Z,7.8
2019-05-12T20:05:17.528Z,7.8
2019-05-12T20:10:16.430Z,7.8
2019-05-12T20:15:15.490Z,7.8
2019-05-12T20:20:17.816Z,7.8
2019-05-12T20:25:15.220Z,7.7
2019-05-12T20:30:20.377Z,7.7
2019-05-12T20:35:15.222Z,7.7
2019-05-12T20:40:15.189Z,7.7
2019-05-12T20:45:15.347Z,7.7
2019-05-12T20:50:15.242Z,7.7
2019-05-12T20:55:15.206Z,7.7
2019-05-12T21:00:15.232Z,7.7
2019-05-12T21:05:19.637Z,7.7
2019-05-12T21:10:19.800Z,7.7
2019-05-12T21:15:20.062Z,7.7
2019-05-12T21:20:16.726Z,7.7
2019-05-12T21:25:15.227Z,7.7
2019-05-12T21:30:15.526Z,7.7
2019-05-12T21:35:21.286Z,7.7
2019-05-12T21:40:15.276Z,7.7
2019-05-12T21:45:20.091Z,7.7
2019-05-12T21:50:15.246Z,7.7
2019-05-12T21:55:21.399Z,7.7
2019-05-12T22:00:19.736Z,7.7
2019-05-12T22:05:22.309Z,7.7
2019-05-12T22:10:15.526Z,7.6
2019-05-12T22:15:19.167Z,7.6
2019-05-12T22:20:19.779Z,7.6
2019-05-12T22:25:15.625Z,7.6
2019-05-12T22:30:15.262Z,7.6
2019-05-12T22:35:21.695Z,7.6
2019-05-12T22:40:19.203Z,7.6
2019-05-12T22:45:15.405Z,7.6
2019-05-12T22:50:15.304Z,7.6
2019-05-12T22:55:15.280Z,7.6
2019-05-12T23:00:19.154Z,7.6
2019-05-12T23:05:19.079Z,7.5
2019-05-12T23:10:15.278Z,7.5
2019-05-12T23:15:15.273Z,7.5
2019-05-12T23:20:15.285Z,7.5
2019-05-12T23:25:19.559Z,7.5
2019-05-12T23:30:15.963Z,7.5
2019-05-12T23:35:15.299Z,7.5
2019-05-12T23:40:16.503Z,7.5
2019-05-12T23:45:15.290Z,7.5
2019-05-12T23:50:15.306Z,7.5
2019-05-12T23:55:15.303Z,7.5
